Time;durP1;ratioP1;P1;durP2;ratioP2;P2;SDS_P1;SDS_P2;PMS_P1;PMS_P2;Temp;Humidity;BMP_temperature;BMP_pressure;BME280_temperature;BME280_humidity;BME280_pressure;Samples;Min_cycle;Max_cycle;Signal;HPM_P1;HPM_P2
2022/03/03 00:00:52;;;;;;;21.55;12.75;;;5.60;84.90;;;;;;5070850;28;20370;-59
2022/03/03 00:03:17;;;;;;;21.15;13.88;;;5.60;85.40;;;;;;5054311;28;20056;-59
2022/03/03 00:05:43;;;;;;;14.82;8.75;;;5.50;85.60;;;;;;5068539;28;20028;-59
2022/03/03 00:08:09;;;;;;;22.95;12.77;;;5.40;85.70;;;;;;5068167;28;20032;-59
2022/03/03 00:10:35;;;;;;;18.92;11.50;;;5.40;86.10;;;;;;5070781;28;20029;-59
2022/03/03 00:13:00;;;;;;;17.27;9.50;;;5.40;86.30;;;;;;5068048;28;20031;-59
2022/03/03 00:15:26;;;;;;;22.23;15.13;;;5.30;86.20;;;;;;5065898;28;20103;-59
2022/03/03 00:17:52;;;;;;;19.30;11.88;;;5.30;86.90;;;;;;5069898;28;20031;-59
2022/03/03 00:20:17;;;;;;;18.92;10.25;;;5.30;86.70;;;;;;5072709;28;20028;-59
2022/03/03 00:22:44;;;;;;;19.70;11.93;;;5.30;86.70;;;;;;5059574;28;20020;-59
2022/03/03 00:25:10;;;;;;;20.08;13.98;;;5.30;86.70;;;;;;5071493;28;20082;-58
2022/03/03 00:27:36;;;;;;;24.02;15.48;;;5.30;87.30;;;;;;5070549;28;20060;-59
2022/03/03 00:30:03;;;;;;;26.55;13.10;;;5.40;87.70;;;;;;5072026;28;20405;-59
2022/03/03 00:32:28;;;;;;;31.20;15.95;;;5.50;87.40;;;;;;5066711;28;20032;-59
2022/03/03 00:34:54;;;;;;;26.73;16.55;;;5.50;87.70;;;;;;5061675;28;20037;-59
2022/03/03 00:37:20;;;;;;;32.72;16.85;;;5.60;87.50;;;;;;5071278;28;20020;-59
2022/03/03 00:39:45;;;;;;;28.80;14.20;;;5.60;87.10;;;;;;5071419;28;20522;-59
2022/03/03 00:42:11;;;;;;;28.13;15.27;;;5.60;86.80;;;;;;5071595;28;20092;-59
2022/03/03 00:44:37;;;;;;;28.23;16.58;;;5.60;86.90;;;;;;5068982;28;20025;-59
2022/03/03 00:47:03;;;;;;;26.17;12.95;;;5.70;87.10;;;;;;5069971;28;20063;-59
2022/03/03 00:49:28;;;;;;;26.73;15.40;;;5.70;86.90;;;;;;5069552;28;20492;-59
2022/03/03 00:51:54;;;;;;;27.20;14.00;;;5.70;86.80;;;;;;5071064;28;20036;-59
2022/03/03 00:54:20;;;;;;;24.27;15.60;;;5.80;86.90;;;;;;5071611;28;20074;-59
2022/03/03 00:56:46;;;;;;;23.85;14.05;;;5.80;86.80;;;;;;5068028;28;20016;-59
2022/03/03 00:59:12;;;;;;;21.02;13.30;;;5.80;86.40;;;;;;5069527;28;20033;-59
2022/03/03 01:01:38;;;;;;;21.20;13.48;;;5.80;86.50;;;;;;5074458;28;20036;-59
2022/03/03 01:04:04;;;;;;;23.52;12.13;;;5.80;85.80;;;;;;5067835;28;20028;-59
2022/03/03 01:06:29;;;;;;;23.13;13.82;;;5.80;85.60;;;;;;5065540;28;20032;-59
2022/03/03 01:08:55;;;;;;;26.35;16.55;;;5.70;85.90;;;;;;5070264;28;20024;-59
2022/03/03 01:11:21;;;;;;;23.50;13.20;;;5.70;86.50;;;;;;5069218;28;20024;-59
2022/03/03 01:13:46;;;;;;;26.98;18.33;;;5.70;86.50;;;;;;5061490;28;20056;-59
2022/03/03 01:16:12;;;;;;;23.48;14.23;;;5.70;86.80;;;;;;5070600;28;20037;-59
2022/03/03 01:18:38;;;;;;;30.25;18.17;;;5.70;86.60;;;;;;5068809;28;20373;-59
2022/03/03 01:21:04;;;;;;;32.78;18.88;;;5.80;86.80;;;;;;5064409;28;20115;-59
2022/03/03 01:23:30;;;;;;;31.90;15.27;;;5.90;86.60;;;;;;5067354;28;20484;-59
2022/03/03 01:25:55;;;;;;;26.70;16.48;;;5.80;86.30;;;;;;5072981;28;20024;-59
2022/03/03 01:28:21;;;;;;;21.98;12.45;;;5.90;86.30;;;;;;5057411;28;20389;-59
2022/03/03 01:30:47;;;;;;;23.67;14.65;;;5.90;86.10;;;;;;5055079;28;20021;-59
2022/03/03 01:33:13;;;;;;;18.83;11.23;;;5.90;85.90;;;;;;5071757;28;20032;-59
2022/03/03 01:35:40;;;;;;;24.15;15.48;;;5.90;85.70;;;;;;5068356;28;20036;-59
2022/03/03 01:38:06;;;;;;;20.67;11.48;;;5.90;85.60;;;;;;5066544;28;20036;-59
2022/03/03 01:40:32;;;;;;;24.90;15.20;;;5.90;85.30;;;;;;5070006;28;20053;-59
2022/03/03 01:42:58;;;;;;;25.23;12.48;;;5.80;85.40;;;;;;5064641;28;20021;-59
2022/03/03 01:45:24;;;;;;;24.95;15.10;;;5.80;85.40;;;;;;5071285;28;20044;-59
2022/03/03 01:47:49;;;;;;;22.05;12.82;;;5.80;85.50;;;;;;5072029;28;20032;-59
2022/03/03 01:50:15;;;;;;;20.88;14.40;;;5.80;85.60;;;;;;5073229;28;20424;-59
2022/03/03 01:52:41;;;;;;;24.17;14.82;;;5.80;85.80;;;;;;5073396;28;20064;-59
2022/03/03 01:55:08;;;;;;;22.92;11.75;;;5.80;85.80;;;;;;5068892;28;20028;-59
2022/03/03 01:57:34;;;;;;;23.80;14.40;;;5.80;85.60;;;;;;5074103;28;20033;-59
2022/03/03 02:00:00;;;;;;;19.33;11.40;;;5.80;85.50;;;;;;5077626;28;20104;-59
2022/03/03 02:02:27;;;;;;;23.20;12.73;;;5.80;85.30;;;;;;5068791;28;20036;-59
2022/03/03 02:04:54;;;;;;;24.75;14.50;;;5.90;85.10;;;;;;5074290;28;20027;-59
2022/03/03 02:07:20;;;;;;;23.15;13.73;;;5.90;85.10;;;;;;5075624;28;20037;-59
2022/03/03 02:09:46;;;;;;;25.55;15.20;;;5.80;85.00;;;;;;5070265;28;20040;-59
2022/03/03 02:12:12;;;;;;;23.40;10.82;;;5.80;85.20;;;;;;5065128;28;20028;-59
2022/03/03 02:14:48;;;;;;;23.38;14.95;;;5.80;85.10;;;;;;5074206;28;21809;-59
2022/03/03 02:17:16;;;;;;;26.73;14.93;;;5.90;85.20;;;;;;5073887;28;20020;-59
2022/03/03 02:19:42;;;;;;;26.08;16.08;;;5.90;85.20;;;;;;5074068;28;20017;-59
2022/03/03 02:22:08;;;;;;;25.15;16.27;;;5.90;85.10;;;;;;5075571;28;20020;-59
2022/03/03 02:24:35;;;;;;;24.15;13.73;;;5.90;85.20;;;;;;5074924;28;20036;-59
2022/03/03 02:27:02;;;;;;;24.38;15.70;;;5.90;85.10;;;;;;5073753;28;20071;-59
2022/03/03 02:29:32;;;;;;;22.65;14.02;;;5.90;85.10;;;;;;5067123;28;20039;-59
2022/03/03 02:32:00;;;;;;;25.55;17.00;;;5.90;85.20;;;;;;5073173;28;20091;-59
2022/03/03 02:34:26;;;;;;;24.98;13.52;;;5.90;85.40;;;;;;5074214;28;20032;-59
2022/03/03 02:36:51;;;;;;;22.65;15.43;;;5.80;85.20;;;;;;5074721;28;20473;-59
2022/03/03 02:39:17;;;;;;;24.95;13.75;;;5.90;85.30;;;;;;5074589;28;20048;-59
2022/03/03 02:41:43;;;;;;;26.77;15.95;;;5.80;85.10;;;;;;5073442;28;20043;-59
2022/03/03 02:44:10;;;;;;;24.60;13.98;;;5.90;85.20;;;;;;5073637;28;20059;-59
2022/03/03 02:46:36;;;;;;;21.63;14.77;;;5.90;85.10;;;;;;5068052;28;20106;-59
2022/03/03 02:49:02;;;;;;;24.40;15.73;;;5.90;85.00;;;;;;5074395;28;20488;-59
2022/03/03 02:51:28;;;;;;;20.80;12.50;;;5.90;84.70;;;;;;5074453;28;20024;-59
2022/03/03 02:53:54;;;;;;;22.48;15.57;;;5.90;84.70;;;;;;5073455;28;20040;-59
2022/03/03 02:56:20;;;;;;;21.33;12.35;;;5.90;84.80;;;;;;5067512;28;20028;-59
2022/03/03 02:58:45;;;;;;;20.67;13.48;;;5.80;84.70;;;;;;5072589;28;20429;-59
2022/03/03 03:01:11;;;;;;;24.20;12.25;;;5.80;84.90;;;;;;5076954;28;20093;-59
2022/03/03 03:03:38;;;;;;;20.38;12.48;;;5.80;85.00;;;;;;5068423;28;20017;-59
2022/03/03 03:06:04;;;;;;;20.95;12.30;;;5.80;84.80;;;;;;5074846;28;20028;-59
2022/03/03 03:08:30;;;;;;;20.45;12.60;;;5.80;84.70;;;;;;5074495;28;20047;-59
2022/03/03 03:10:55;;;;;;;22.35;12.85;;;5.80;84.50;;;;;;5073810;28;20028;-59
2022/03/03 03:13:21;;;;;;;18.08;9.48;;;5.80;84.10;;;;;;5062465;28;20028;-59
2022/03/03 03:15:47;;;;;;;19.08;12.65;;;5.80;84.10;;;;;;5074958;28;20154;-59
2022/03/03 03:18:19;;;;;;;15.77;7.85;;;5.80;84.20;;;;;;5066766;28;20032;-59
2022/03/03 03:20:46;;;;;;;16.83;9.15;;;5.80;84.10;;;;;;5073890;28;20027;-59
2022/03/03 03:23:15;;;;;;;17.80;9.98;;;5.70;84.00;;;;;;5067744;28;20028;-59
2022/03/03 03:25:43;;;;;;;16.50;9.20;;;5.80;83.90;;;;;;5074108;28;20027;-59
2022/03/03 03:28:19;;;;;;;14.20;8.27;;;5.70;83.90;;;;;;5072499;28;20025;-59
2022/03/03 03:30:46;;;;;;;15.25;8.85;;;5.70;83.90;;;;;;5075907;28;20029;-59
2022/03/03 03:33:12;;;;;;;16.50;10.30;;;5.70;83.80;;;;;;5073611;28;20025;-59
2022/03/03 03:35:37;;;;;;;19.35;10.93;;;5.70;83.90;;;;;;5067169;28;20075;-59
2022/03/03 03:38:04;;;;;;;12.88;9.73;;;5.70;83.90;;;;;;5068026;28;20108;-59
2022/03/03 03:40:30;;;;;;;14.30;10.05;;;5.70;83.80;;;;;;5071035;28;20033;-59
2022/03/03 03:42:56;;;;;;;17.25;9.93;;;5.70;83.70;;;;;;5072792;28;20025;-59
2022/03/03 03:45:22;;;;;;;16.25;10.70;;;5.70;83.70;;;;;;5073226;28;20107;-59
2022/03/03 03:47:48;;;;;;;24.52;9.40;;;5.70;83.80;;;;;;5073524;28;20020;-59
2022/03/03 03:50:14;;;;;;;20.52;11.23;;;5.70;83.80;;;;;;5064436;28;20049;-59
2022/03/03 03:52:41;;;;;;;14.55;9.52;;;5.70;83.90;;;;;;5072726;28;20085;-59
2022/03/03 03:55:09;;;;;;;15.90;10.95;;;5.70;83.80;;;;;;5071537;28;20029;-59
2022/03/03 03:57:38;;;;;;;18.13;11.15;;;5.70;83.90;;;;;;5073142;28;20025;-59
2022/03/03 04:00:14;;;;;;;15.63;9.77;;;5.70;83.80;;;;;;5068647;28;20028;-59
2022/03/03 04:02:41;;;;;;;15.95;10.82;;;5.70;83.80;;;;;;5074057;28;20032;-59
2022/03/03 04:05:08;;;;;;;15.23;8.85;;;5.70;84.20;;;;;;5073137;28;20029;-59
2022/03/03 04:07:33;;;;;;;16.05;11.45;;;5.50;84.10;;;;;;5073544;28;20568;-59
2022/03/03 04:09:59;;;;;;;14.48;8.70;;;5.60;84.50;;;;;;5063598;28;20062;-59
2022/03/03 04:12:25;;;;;;;19.80;10.98;;;5.50;84.50;;;;;;5071115;28;20032;-59
2022/03/03 04:14:52;;;;;;;15.52;8.82;;;5.60;84.60;;;;;;5074050;28;20102;-59
2022/03/03 04:17:18;;;;;;;18.17;10.45;;;5.50;84.30;;;;;;5073027;28;20397;-59
2022/03/03 04:19:43;;;;;;;9.90;5.90;;;5.60;84.40;;;;;;5079796;28;20988;-59
2022/03/03 04:22:09;;;;;;;11.07;7.38;;;5.60;84.20;;;;;;5072916;28;20055;-59
2022/03/03 04:24:35;;;;;;;18.33;8.43;;;5.50;84.20;;;;;;5063624;28;20032;-59
2022/03/03 04:27:01;;;;;;;13.60;5.82;;;5.50;83.90;;;;;;5072207;28;20025;-59
2022/03/03 04:29:27;;;;;;;13.68;7.78;;;5.50;83.80;;;;;;5068243;28;20151;-59
2022/03/03 04:31:54;;;;;;;13.35;5.68;;;5.50;83.80;;;;;;5069919;28;20388;-59
2022/03/03 04:34:20;;;;;;;18.10;7.75;;;5.40;83.60;;;;;;5072058;28;20064;-59
2022/03/03 04:36:46;;;;;;;19.98;7.00;;;5.40;83.70;;;;;;5075552;28;20042;-59
2022/03/03 04:39:13;;;;;;;13.25;7.85;;;5.30;83.80;;;;;;5072928;28;20120;-59
2022/03/03 04:41:39;;;;;;;16.05;5.70;;;5.30;84.00;;;;;;5054161;28;20075;-59
2022/03/03 04:44:05;;;;;;;11.27;6.50;;;5.30;83.80;;;;;;5054018;28;20052;-59
2022/03/03 04:46:31;;;;;;;15.88;6.22;;;5.30;83.60;;;;;;5071028;28;20021;-59
2022/03/03 04:48:59;;;;;;;10.40;5.93;;;5.20;83.80;;;;;;5062295;28;20080;-59
2022/03/03 04:51:26;;;;;;;29.20;9.95;;;5.20;83.80;;;;;;5067176;28;20020;-59
2022/03/03 04:53:52;;;;;;;17.85;8.75;;;5.20;83.90;;;;;;5054614;28;20142;-59
2022/03/03 04:56:18;;;;;;;12.88;6.25;;;5.20;83.90;;;;;;5079612;28;20024;-59
2022/03/03 04:58:44;;;;;;;16.33;7.75;;;5.20;83.80;;;;;;5069276;28;20024;-59
2022/03/03 05:01:11;;;;;;;17.45;6.68;;;5.20;83.90;;;;;;5069810;28;20028;-59
2022/03/03 05:03:37;;;;;;;17.30;7.43;;;5.20;83.90;;;;;;5063152;28;20029;-59
2022/03/03 05:06:03;;;;;;;16.73;6.65;;;5.20;83.90;;;;;;5061623;28;20036;-59
2022/03/03 05:08:29;;;;;;;11.20;6.00;;;5.20;84.00;;;;;;5053422;28;20626;-59
2022/03/03 05:10:55;;;;;;;15.18;5.30;;;5.20;83.80;;;;;;5067778;28;20119;-59
2022/03/03 05:13:21;;;;;;;22.17;7.63;;;5.10;83.50;;;;;;5071181;28;20059;-59
2022/03/03 05:15:47;;;;;;;17.10;6.13;;;5.10;83.40;;;;;;5077008;28;20559;-59
2022/03/03 05:18:12;;;;;;;19.73;6.90;;;5.10;83.30;;;;;;5049122;28;20384;-59
2022/03/03 05:20:38;;;;;;;13.90;7.32;;;5.10;83.40;;;;;;5071621;28;20090;-59
2022/03/03 05:23:05;;;;;;;12.93;6.13;;;5.10;83.40;;;;;;5071363;28;20024;-59
2022/03/03 05:25:31;;;;;;;17.75;6.15;;;5.00;83.30;;;;;;5072003;28;20389;-59
2022/03/03 05:28:00;;;;;;;8.10;5.40;;;5.00;83.50;;;;;;5071698;28;20029;-59
2022/03/03 05:30:25;;;;;;;10.02;5.38;;;5.00;83.40;;;;;;5074397;28;20029;-59
2022/03/03 05:32:52;;;;;;;9.20;6.20;;;5.00;83.30;;;;;;5071378;28;20035;-59
2022/03/03 05:35:18;;;;;;;7.40;5.05;;;5.00;83.50;;;;;;5075837;28;20032;-59
2022/03/03 05:37:46;;;;;;;11.82;7.43;;;5.00;83.50;;;;;;5066946;28;20107;-59
2022/03/03 05:40:12;;;;;;;15.32;6.13;;;5.00;83.70;;;;;;5067669;28;20065;-59
2022/03/03 05:42:38;;;;;;;10.07;7.20;;;5.00;83.50;;;;;;5069753;28;20020;-59
2022/03/03 05:45:05;;;;;;;10.38;5.53;;;5.00;83.70;;;;;;5071263;28;20036;-59
2022/03/03 05:47:30;;;;;;;10.57;7.28;;;5.00;83.50;;;;;;5068546;28;20042;-59
2022/03/03 05:49:57;;;;;;;9.32;6.38;;;5.00;83.60;;;;;;5070901;28;20032;-57
2022/03/03 05:52:23;;;;;;;10.98;7.95;;;5.00;83.50;;;;;;5067176;28;20074;-59
2022/03/03 05:54:49;;;;;;;7.72;5.70;;;5.00;83.70;;;;;;5066653;28;20029;-59
2022/03/03 05:57:21;;;;;;;8.20;5.72;;;5.00;83.60;;;;;;5070233;28;20104;-59
2022/03/03 05:59:50;;;;;;;10.60;7.00;;;5.00;83.70;;;;;;5066850;28;20023;-59
2022/03/03 06:02:19;;;;;;;9.65;5.28;;;5.10;83.80;;;;;;5082714;28;20522;-59
2022/03/03 06:04:48;;;;;;;7.07;5.00;;;5.10;83.80;;;;;;5072028;28;20029;-59
2022/03/03 06:07:25;;;;;;;7.85;4.80;;;5.10;83.90;;;;;;5070066;28;20115;-59
2022/03/03 06:09:54;;;;;;;9.40;7.20;;;5.10;83.90;;;;;;5050716;28;20029;-59
2022/03/03 06:12:37;;;;;;;9.68;5.25;;;5.10;84.00;;;;;;5069713;28;20037;-59
2022/03/03 06:15:04;;;;;;;7.60;5.47;;;5.10;83.80;;;;;;5066568;28;20062;-59
2022/03/03 06:17:31;;;;;;;7.93;5.30;;;5.10;84.00;;;;;;5067635;28;20020;-59
2022/03/03 06:20:00;;;;;;;8.88;6.43;;;5.10;84.00;;;;;;5070590;28;20029;-59
2022/03/03 06:22:26;;;;;;;11.50;7.53;;;5.20;84.10;;;;;;5066007;28;20005;-59
2022/03/03 06:24:52;;;;;;;8.50;5.35;;;5.20;84.00;;;;;;5069092;28;20025;-59
2022/03/03 06:27:18;;;;;;;9.55;6.72;;;5.20;83.80;;;;;;5072362;28;20488;-59
2022/03/03 06:29:44;;;;;;;10.50;6.88;;;5.20;84.00;;;;;;5071879;28;20033;-59
2022/03/03 06:32:10;;;;;;;9.20;5.53;;;5.20;84.00;;;;;;5074688;28;20055;-59
2022/03/03 06:34:36;;;;;;;10.27;7.45;;;5.20;83.90;;;;;;5070320;28;20060;-56
2022/03/03 06:37:02;;;;;;;9.38;5.57;;;5.30;84.00;;;;;;5067127;28;20032;-58
2022/03/03 06:39:28;;;;;;;11.13;7.43;;;5.30;83.80;;;;;;5061156;28;20401;-58
2022/03/03 06:41:54;;;;;;;16.75;7.70;;;5.30;83.90;;;;;;5046500;28;20013;-58
2022/03/03 06:44:20;;;;;;;11.85;8.02;;;5.30;83.90;;;;;;5051429;28;20036;-58
2022/03/03 06:46:47;;;;;;;10.40;6.05;;;5.40;83.80;;;;;;5052185;28;20384;-57
2022/03/03 06:49:13;;;;;;;9.23;5.80;;;5.40;83.90;;;;;;5050990;28;20558;-58
2022/03/03 06:51:44;;;;;;;11.10;7.63;;;5.40;84.00;;;;;;5045182;28;20033;-58
2022/03/03 06:54:15;;;;;;;9.68;7.00;;;5.40;84.10;;;;;;5051754;28;20040;-58
2022/03/03 06:56:47;;;;;;;12.07;6.65;;;5.40;84.00;;;;;;5045599;28;20052;-58
2022/03/03 06:59:15;;;;;;;9.40;6.97;;;5.40;84.00;;;;;;5047833;28;20021;-58
2022/03/03 07:01:42;;;;;;;13.27;8.40;;;5.40;84.00;;;;;;5053842;28;20512;-58
2022/03/03 07:04:10;;;;;;;12.02;6.65;;;5.50;84.00;;;;;;5053498;28;20025;-59
2022/03/03 07:06:37;;;;;;;13.05;8.57;;;5.50;84.00;;;;;;5047871;28;20028;-58
2022/03/03 07:09:03;;;;;;;12.60;7.18;;;5.50;84.00;;;;;;5051278;28;20021;-59
2022/03/03 07:11:29;;;;;;;12.85;8.18;;;5.50;83.80;;;;;;5054064;28;20103;-59
2022/03/03 07:13:58;;;;;;;12.30;6.95;;;5.50;83.90;;;;;;5050641;28;20021;-59
2022/03/03 07:16:36;;;;;;;14.10;9.18;;;5.50;83.80;;;;;;5049904;28;20102;-59
2022/03/03 07:19:04;;;;;;;12.15;8.55;;;5.50;83.80;;;;;;5047160;28;20362;-59
2022/03/03 07:22:06;;;;;;;13.65;7.05;;;5.60;83.80;;;;;;5050023;28;20024;-59
2022/03/03 07:24:34;;;;;;;11.73;7.88;;;5.60;83.70;;;;;;5046201;28;20059;-59
2022/03/03 07:27:04;;;;;;;10.90;6.43;;;5.60;83.80;;;;;;5050561;28;20091;-59
2022/03/03 07:29:33;;;;;;;13.80;8.82;;;5.60;83.70;;;;;;5056308;28;20025;-59
2022/03/03 07:32:05;;;;;;;12.48;7.15;;;5.60;83.50;;;;;;5051438;28;20091;-58
2022/03/03 07:34:36;;;;;;;13.60;8.43;;;5.70;83.50;;;;;;5044606;28;21731;-60
2022/03/03 07:37:07;;;;;;;11.93;7.38;;;5.70;83.30;;;;;;5046425;28;20044;-58
2022/03/03 07:39:45;;;;;;;;;;;5.80;83.20;;;;;;5057578;28;20103;-59
2022/03/03 07:42:17;;;;;;;12.18;6.30;;;5.70;83.70;;;;;;5071216;28;20360;-59
2022/03/03 07:44:43;;;;;;;13.50;8.80;;;5.80;83.30;;;;;;5064990;28;20391;-60
2022/03/03 07:47:09;;;;;;;12.40;7.95;;;5.90;82.90;;;;;;5051809;28;20028;-59
2022/03/03 07:49:35;;;;;;;12.07;7.03;;;6.00;82.30;;;;;;5064342;28;20435;-60
2022/03/03 07:52:05;;;;;;;13.38;9.32;;;6.00;82.10;;;;;;5059798;28;20480;-59
2022/03/03 07:54:32;;;;;;;12.80;8.90;;;6.10;81.80;;;;;;5065898;28;20025;-59
2022/03/03 07:57:00;;;;;;;13.60;9.45;;;6.10;81.30;;;;;;5069890;28;20047;-59
2022/03/03 07:59:34;;;;;;;13.15;8.57;;;6.20;81.10;;;;;;5057292;28;20033;-59
2022/03/03 08:02:04;;;;;;;11.38;8.57;;;6.20;80.90;;;;;;5062970;28;20025;-59
2022/03/03 08:04:32;;;;;;;13.65;7.53;;;6.30;80.60;;;;;;5062568;28;20508;-59
2022/03/03 08:07:07;;;;;;;13.45;8.77;;;6.30;80.50;;;;;;5060373;28;20106;-59
2022/03/03 08:09:34;;;;;;;13.95;8.88;;;6.30;80.30;;;;;;5063207;28;20484;-60
2022/03/03 08:12:04;;;;;;;14.27;9.63;;;6.30;79.90;;;;;;5045459;28;20499;-59
2022/03/03 08:14:30;;;;;;;14.18;8.18;;;6.30;79.70;;;;;;5061070;28;20032;-60
2022/03/03 08:16:56;;;;;;;12.60;8.68;;;6.30;79.80;;;;;;5061745;28;20101;-60
2022/03/03 08:19:22;;;;;;;12.80;8.80;;;6.40;79.70;;;;;;5056546;28;20696;-61
2022/03/03 08:21:48;;;;;;;14.07;9.15;;;6.40;79.70;;;;;;5057188;28;20027;-61
2022/03/03 08:24:15;;;;;;;14.73;10.80;;;6.40;79.60;;;;;;5055543;28;20032;-61
2022/03/03 08:26:43;;;;;;;14.27;10.32;;;6.50;79.60;;;;;;5056240;28;20119;-60
2022/03/03 08:29:09;;;;;;;14.20;9.93;;;6.50;79.40;;;;;;5054409;28;20111;-60
2022/03/03 08:31:41;;;;;;;14.75;10.27;;;6.60;79.40;;;;;;5057020;28;20036;-62
2022/03/03 08:34:21;;;;;;;15.43;9.77;;;6.60;79.40;;;;;;5054280;28;20020;-60
2022/03/03 08:36:54;;;;;;;11.75;8.98;;;6.70;79.50;;;;;;5051317;28;20124;-62
2022/03/03 08:39:26;;;;;;;13.82;9.35;;;6.70;79.60;;;;;;5058372;28;21306;-61
2022/03/03 08:41:56;;;;;;;11.27;8.15;;;6.70;79.50;;;;;;5053120;28;20032;-60
2022/03/03 08:44:27;;;;;;;13.95;9.93;;;6.70;79.50;;;;;;5059904;28;20380;-60
2022/03/03 08:46:56;;;;;;;12.80;9.45;;;6.70;79.30;;;;;;5056706;28;20123;-60
2022/03/03 08:49:28;;;;;;;11.98;8.90;;;6.70;79.40;;;;;;5060411;28;20036;-60
2022/03/03 08:51:54;;;;;;;;;;;6.80;79.50;;;;;;5059451;28;20029;-59
2022/03/03 08:54:21;;;;;;;13.43;8.85;;;6.70;79.30;;;;;;5057489;28;19913;-60
2022/03/03 08:56:47;;;;;;;13.25;9.57;;;6.70;79.40;;;;;;5060536;28;20787;-61
2022/03/03 08:59:13;;;;;;;13.60;10.00;;;6.70;79.30;;;;;;5054734;28;20029;-61
2022/03/03 09:01:39;;;;;;;14.32;10.13;;;6.70;79.10;;;;;;5054620;28;20025;-61
2022/03/03 09:04:06;;;;;;;14.25;10.70;;;6.80;79.10;;;;;;5055720;28;20048;-59
2022/03/03 09:06:33;;;;;;;14.45;9.95;;;6.90;78.70;;;;;;5057270;28;20025;-59
2022/03/03 09:08:58;;;;;;;14.95;10.43;;;6.90;78.50;;;;;;5057428;28;20023;-59
2022/03/03 09:11:24;;;;;;;14.88;9.88;;;7.00;78.00;;;;;;5060807;28;20567;-59
2022/03/03 09:13:51;;;;;;;12.70;9.40;;;7.10;77.10;;;;;;5057794;28;20028;-60
2022/03/03 09:16:17;;;;;;;13.57;10.00;;;7.10;76.60;;;;;;5057924;28;20095;-60
2022/03/03 09:18:47;;;;;;;12.07;9.40;;;7.10;76.30;;;;;;5056171;28;20082;-60
2022/03/03 09:21:14;;;;;;;12.90;9.32;;;7.20;76.00;;;;;;5054331;28;20059;-59
2022/03/03 09:23:41;;;;;;;13.27;9.43;;;7.20;75.30;;;;;;5055664;28;20051;-58
2022/03/03 09:26:07;;;;;;;14.07;10.63;;;7.20;75.00;;;;;;5058218;28;20056;-57
2022/03/03 09:28:33;;;;;;;13.75;9.27;;;7.20;75.00;;;;;;5053027;28;20113;-58
2022/03/03 09:30:59;;;;;;;13.95;9.48;;;7.20;74.70;;;;;;5058939;28;20399;-59
2022/03/03 09:33:25;;;;;;;12.32;8.77;;;7.20;74.40;;;;;;5058738;28;20036;-60
2022/03/03 09:35:51;;;;;;;14.35;9.80;;;7.30;74.50;;;;;;5058145;28;20040;-59
2022/03/03 09:38:17;;;;;;;14.30;10.68;;;7.20;74.00;;;;;;5054826;28;20037;-59
2022/03/03 09:40:44;;;;;;;13.10;9.18;;;7.20;74.10;;;;;;5062355;28;20035;-58
2022/03/03 09:43:11;;;;;;;14.48;10.77;;;7.10;74.10;;;;;;5060451;28;20028;-59
2022/03/03 09:45:38;;;;;;;11.88;9.32;;;7.00;74.30;;;;;;5060084;28;20024;-59
2022/03/03 09:48:09;;;;;;;11.88;9.05;;;7.00;74.50;;;;;;5056403;28;20037;-58
2022/03/03 09:50:40;;;;;;;13.07;9.63;;;7.00;74.30;;;;;;5061518;28;20408;-58
2022/03/03 09:53:11;;;;;;;14.70;10.02;;;7.00;74.20;;;;;;5065441;28;20752;-59
2022/03/03 09:55:40;;;;;;;12.85;10.10;;;6.90;73.90;;;;;;5065467;28;20037;-58
2022/03/03 09:58:06;;;;;;;12.20;9.32;;;6.90;74.20;;;;;;5063303;28;20036;-59
2022/03/03 10:00:36;;;;;;;15.55;11.27;;;6.90;74.20;;;;;;5057751;28;20025;-60
2022/03/03 10:03:12;;;;;;;13.95;10.52;;;7.00;74.30;;;;;;5062114;28;20017;-60
2022/03/03 10:05:38;;;;;;;12.95;9.48;;;7.00;74.10;;;;;;5069482;28;20028;-60
2022/03/03 10:08:08;;;;;;;14.27;10.18;;;7.10;74.00;;;;;;5070598;28;20032;-60
2022/03/03 10:10:36;;;;;;;15.05;10.63;;;7.20;73.70;;;;;;5068696;28;20090;-59
2022/03/03 10:13:02;;;;;;;13.82;10.23;;;7.30;73.50;;;;;;5069519;28;20031;-60
2022/03/03 10:15:32;;;;;;;14.18;10.32;;;7.40;73.30;;;;;;5060265;28;20551;-60
2022/03/03 10:18:07;;;;;;;13.23;9.75;;;7.40;72.90;;;;;;5048686;28;20435;-60
2022/03/03 10:20:57;;;;;;;12.77;9.07;;;7.50;72.80;;;;;;5068091;28;20025;-60
2022/03/03 10:23:29;;;;;;;12.23;9.75;;;7.50;72.90;;;;;;5068120;28;20013;-60
2022/03/03 10:25:58;;;;;;;14.00;10.27;;;7.60;73.20;;;;;;5064585;28;20476;-60
2022/03/03 10:28:29;;;;;;;12.73;9.98;;;7.60;73.50;;;;;;5066514;28;20020;-59
2022/03/03 10:31:05;;;;;;;14.60;10.13;;;7.60;72.80;;;;;;5066179;28;20037;-60
2022/03/03 10:33:46;;;;;;;13.35;10.43;;;7.60;72.90;;;;;;5046819;28;20569;-60
2022/03/03 10:36:16;;;;;;;13.65;10.23;;;7.60;73.20;;;;;;5065996;28;20031;-60
2022/03/03 10:38:55;;;;;;;13.20;10.63;;;7.60;73.10;;;;;;5065252;28;20084;-60
2022/03/03 10:41:39;;;;;;;15.05;10.65;;;7.60;73.00;;;;;;5061218;28;20057;-60
2022/03/03 10:44:15;;;;;;;14.38;10.07;;;7.50;73.30;;;;;;5060783;28;20047;-60
2022/03/03 10:47:03;;;;;;;14.93;10.07;;;7.50;73.20;;;;;;5061576;28;20511;-59
2022/03/03 10:49:29;;;;;;;13.80;9.70;;;7.50;73.20;;;;;;5059054;28;20028;-60
2022/03/03 10:52:09;;;;;;;13.43;9.75;;;7.50;73.60;;;;;;5063321;28;20047;-60
2022/03/03 10:54:52;;;;;;;16.83;11.27;;;7.40;73.60;;;;;;5065428;28;20040;-60
2022/03/03 10:57:41;;;;;;;15.00;10.30;;;7.40;73.60;;;;;;5064971;28;20024;-60
2022/03/03 11:00:18;;;;;;;14.93;11.10;;;7.40;73.70;;;;;;5056936;28;20020;-61
2022/03/03 11:02:50;;;;;;;15.23;11.27;;;7.40;73.60;;;;;;5063012;28;20028;-60
2022/03/03 11:05:17;;;;;;;14.95;10.93;;;7.50;73.80;;;;;;5061831;28;20051;-60
2022/03/03 11:07:47;;;;;;;14.63;11.02;;;7.50;73.60;;;;;;5049624;28;20953;-60
2022/03/03 11:10:19;;;;;;;16.52;11.52;;;7.50;73.50;;;;;;5060835;28;20097;-60
2022/03/03 11:12:46;;;;;;;14.38;11.35;;;7.60;73.60;;;;;;5040769;28;20048;-60
2022/03/03 11:15:14;;;;;;;17.00;11.60;;;7.50;73.50;;;;;;5054230;28;20027;-60
2022/03/03 11:17:41;;;;;;;16.67;11.43;;;7.50;73.50;;;;;;5060833;28;20032;-60
2022/03/03 11:20:11;;;;;;;17.42;11.82;;;7.50;73.50;;;;;;5062533;28;20029;-60
2022/03/03 11:22:38;;;;;;;15.30;11.50;;;7.50;73.50;;;;;;5063902;28;20069;-60
2022/03/03 11:25:26;;;;;;;16.35;11.13;;;7.50;73.40;;;;;;5061541;28;20108;-60
2022/03/03 11:28:05;;;;;;;14.10;10.60;;;7.50;73.40;;;;;;5062028;28;20064;-60
2022/03/03 11:30:32;;;;;;;16.23;11.95;;;7.50;73.60;;;;;;5047950;28;20440;-60
2022/03/03 11:33:24;;;;;;;14.90;10.90;;;7.50;73.40;;;;;;5063564;28;20025;-60
2022/03/03 11:35:52;;;;;;;13.18;11.13;;;7.60;73.40;;;;;;5061347;28;20033;-60
2022/03/03 11:38:20;;;;;;;14.45;10.88;;;7.60;73.60;;;;;;5066549;28;20063;-60
2022/03/03 11:41:03;;;;;;;13.40;10.45;;;7.60;73.50;;;;;;5068648;28;23670;-60
2022/03/03 11:43:30;;;;;;;16.85;11.85;;;7.60;73.50;;;;;;5068232;28;20082;-60
2022/03/03 11:45:59;;;;;;;15.07;11.13;;;7.60;73.60;;;;;;5063260;28;20078;-59
2022/03/03 11:48:38;;;;;;;16.02;12.00;;;7.60;73.90;;;;;;5067055;28;20054;-60
2022/03/03 11:51:42;;;;;;;15.23;11.48;;;7.70;73.90;;;;;;5040022;28;20028;-60
2022/03/03 11:54:14;;;;;;;15.98;11.70;;;7.70;73.80;;;;;;5003853;28;20064;-60
2022/03/03 11:57:04;;;;;;;15.23;11.85;;;7.70;73.60;;;;;;5057362;28;20147;-60
2022/03/03 11:59:41;;;;;;;12.85;10.07;;;7.70;73.60;;;;;;5065734;28;20492;-61
2022/03/03 12:02:08;;;;;;;13.43;10.48;;;7.70;73.50;;;;;;5066427;28;20032;-60
2022/03/03 12:04:37;;;;;;;15.90;11.40;;;7.70;73.50;;;;;;5065283;28;20028;-60
2022/03/03 12:07:04;;;;;;;15.23;11.25;;;7.70;73.50;;;;;;5060895;28;20147;-60
2022/03/03 12:09:33;;;;;;;14.88;10.63;;;7.70;73.60;;;;;;5065464;28;20025;-60
2022/03/03 12:12:10;;;;;;;14.57;11.75;;;7.70;73.30;;;;;;5064495;28;20044;-60
2022/03/03 12:14:51;;;;;;;13.18;9.73;;;7.70;73.20;;;;;;5068502;28;20504;-60
2022/03/03 12:17:36;;;;;;;12.98;9.93;;;7.70;73.10;;;;;;5061135;28;20035;-60
2022/03/03 12:20:24;;;;;;;13.73;10.55;;;7.70;72.90;;;;;;5064694;28;20025;-60
2022/03/03 12:23:18;;;;;;;12.90;9.70;;;7.70;73.00;;;;;;5063715;28;20598;-60
2022/03/03 12:25:51;;;;;;;12.63;9.43;;;7.60;73.00;;;;;;5049504;28;20040;-59
2022/03/03 12:28:22;;;;;;;13.75;9.57;;;7.60;73.20;;;;;;5062778;28;20036;-59
2022/03/03 12:30:50;;;;;;;13.57;10.60;;;7.60;73.50;;;;;;5061448;28;20079;-59
2022/03/03 12:33:24;;;;;;;14.60;10.65;;;7.50;73.80;;;;;;5059999;28;20123;-59
2022/03/03 12:35:52;;;;;;;13.18;9.85;;;7.50;74.00;;;;;;5062415;28;20389;-59
2022/03/03 12:38:18;;;;;;;15.40;11.07;;;7.50;74.20;;;;;;5060688;28;20056;-60
2022/03/03 12:40:44;;;;;;;15.25;11.25;;;7.40;74.10;;;;;;5055263;28;20318;-59
2022/03/03 12:43:12;;;;;;;15.75;11.45;;;7.40;74.40;;;;;;5063304;28;20025;-59
2022/03/03 12:45:39;;;;;;;13.68;10.55;;;7.40;74.70;;;;;;5064504;28;20040;-59
2022/03/03 12:48:06;;;;;;;15.10;11.27;;;7.40;74.80;;;;;;5059164;28;20029;-60
2022/03/03 12:50:33;;;;;;;15.82;11.35;;;7.40;74.90;;;;;;5059420;28;20785;-59